createdAt,value
2022-08-23T00:02:23.122Z,101556.34
2022-08-23T00:05:03.428Z,101557.44
2022-08-23T00:07:41.360Z,101557.25
2022-08-23T00:10:13.657Z,101558.88
2022-08-23T00:12:40.587Z,101552.22
2022-08-23T00:15:09.797Z,101560.81
2022-08-23T00:17:36.890Z,101561.91
2022-08-23T00:20:08.331Z,101564.16
2022-08-23T00:22:36.382Z,101548.66
2022-08-23T00:25:04.702Z,101549.44
2022-08-23T00:27:31.510Z,101551.69
2022-08-23T00:29:58.406Z,101548.63
2022-08-23T00:32:28.960Z,101545.31
2022-08-23T00:34:56.672Z,101544.81
2022-08-23T00:37:24.768Z,101545.91
2022-08-23T00:39:52.222Z,101551.75
2022-08-23T00:43:12.529Z,101551.97
2022-08-23T00:46:07.627Z,101554.22
2022-08-23T00:48:35.756Z,101553.94
2022-08-23T00:51:16.180Z,101553.97
2022-08-23T00:53:47.823Z,101556.41
2022-08-23T00:56:19.921Z,101552.56
2022-08-23T00:58:46.960Z,101548.97
2022-08-23T01:01:14.498Z,101538.13
2022-08-23T01:03:49.752Z,101552.00
2022-08-23T01:06:32.533Z,101546.47
2022-08-23T01:09:05.232Z,101546.78
2022-08-23T01:11:43.566Z,101548.16
2022-08-23T01:14:22.048Z,101552.88
2022-08-23T01:16:57.528Z,101552.56
2022-08-23T01:19:31.789Z,101548.16
2022-08-23T01:22:24.223Z,101549.81
2022-08-23T01:25:07.227Z,101544.00
2022-08-23T01:27:36.018Z,101553.16
2022-08-23T01:30:05.326Z,101548.72
2022-08-23T01:32:36.162Z,101549.28
2022-08-23T01:35:03.547Z,101546.78
2022-08-23T01:37:30.148Z,101549.25
2022-08-23T01:39:56.754Z,101547.63
2022-08-23T01:42:23.449Z,101548.72
2022-08-23T01:44:50.161Z,101547.88
2022-08-23T01:47:17.397Z,101549.84
2022-08-23T01:49:43.957Z,101548.72
2022-08-23T01:52:10.511Z,101553.69
2022-08-23T01:54:37.048Z,101558.94
2022-08-23T01:57:06.288Z,101553.16
2022-08-23T01:59:33.960Z,101558.94
2022-08-23T02:02:00.571Z,101561.97
2022-08-23T02:04:27.824Z,101567.50
2022-08-23T02:06:54.361Z,101563.09
2022-08-23T02:09:21.533Z,101561.16
2022-08-23T02:11:49.108Z,101553.41
2022-08-23T02:14:20.555Z,101556.44
2022-08-23T02:17:04.046Z,101551.47
2022-08-23T02:19:33.389Z,101545.69
2022-08-23T02:22:00.482Z,101540.97
2022-08-23T02:24:27.249Z,101544.31
2022-08-23T02:26:57.196Z,101539.34
2022-08-23T02:29:25.807Z,101545.97
2022-08-23T02:31:53.234Z,101555.09
2022-08-23T02:37:04.697Z,101552.88
2022-08-23T02:39:31.652Z,101552.59
2022-08-23T02:41:58.216Z,101548.72
2022-08-23T02:44:24.868Z,101552.31
2022-08-23T02:46:51.509Z,101549.00
2022-08-23T02:49:19.167Z,101556.47
2022-08-23T02:51:46.318Z,101551.50
2022-08-23T02:54:13.258Z,101545.97
2022-08-23T02:56:40.282Z,101547.34
2022-08-23T02:59:07.598Z,101545.97
2022-08-23T03:01:37.164Z,101548.16
2022-08-23T03:04:06.306Z,101542.34
2022-08-23T03:06:33.038Z,101556.19
2022-08-23T03:08:59.993Z,101556.19
2022-08-23T03:11:26.687Z,101560.59
2022-08-23T03:13:54.673Z,101568.59
2022-08-23T03:16:21.457Z,101558.13
2022-08-23T03:18:49.093Z,101562.53
2022-08-23T03:21:16.695Z,101556.75
2022-08-23T03:23:43.424Z,101561.16
2022-08-23T03:26:11.923Z,101563.91
2022-08-23T03:28:40.729Z,101569.69
2022-08-23T03:31:08.903Z,101568.59
2022-08-23T03:33:35.927Z,101569.97
2022-08-23T03:36:06.621Z,101570.81
2022-08-23T03:38:34.385Z,101578.53
2022-08-23T03:41:01.608Z,101577.94
2022-08-23T03:43:28.626Z,101573.00
2022-08-23T03:45:55.391Z,101582.66
2022-08-23T03:48:22.631Z,101571.59
2022-08-23T03:50:49.383Z,101577.38
2022-08-23T03:53:16.474Z,101577.59
2022-08-23T03:55:43.739Z,101577.31
2022-08-23T03:58:11.497Z,101577.38
2022-08-23T04:00:39.167Z,101585.59
2022-08-23T04:03:06.276Z,101582.53
2022-08-23T04:05:33.116Z,101580.06
2022-08-23T04:08:01.567Z,101586.41
2022-08-23T04:10:28.402Z,101591.63
2022-08-23T04:12:55.094Z,101598.31
2022-08-23T04:15:22.757Z,101596.38
2022-08-23T04:17:49.323Z,101594.19
2022-08-23T04:20:16.223Z,101596.03
2022-08-23T04:22:42.871Z,101588.38
2022-08-23T04:25:34.419Z,101597.00
2022-08-23T04:27:59.807Z,101606.41
2022-08-23T04:30:27.108Z,101607.78
2022-08-23T04:32:53.647Z,101606.69
2022-08-23T04:35:21.186Z,101604.44
2022-08-23T04:37:47.748Z,101608.91
2022-08-23T04:40:32.984Z,101609.44
2022-08-23T04:42:59.567Z,101611.09
2022-08-23T04:45:27.236Z,101612.22
2022-08-23T04:47:54.412Z,101611.09
2022-08-23T04:50:21.874Z,101611.38
2022-08-23T04:52:48.466Z,101612.75
2022-08-23T04:55:15.691Z,101619.91
2022-08-23T04:57:42.833Z,101622.97
2022-08-23T05:00:12.823Z,101622.06
2022-08-23T05:02:39.804Z,101622.94
2022-08-23T05:05:08.051Z,101622.09
2022-08-23T05:07:42.523Z,101630.88
2022-08-23T05:10:12.815Z,101631.50
2022-08-23T05:12:40.176Z,101632.66
2022-08-23T05:15:07.729Z,101629.53
2022-08-23T05:17:34.264Z,101626.47
2022-08-23T05:20:01.090Z,101631.78
2022-08-23T05:22:27.663Z,101632.66
2022-08-23T05:24:54.189Z,101639.88
2022-08-23T05:27:20.724Z,101638.78
2022-08-23T05:29:47.304Z,101636.59
2022-08-23T05:32:13.834Z,101634.38
2022-08-23T05:34:42.148Z,101646.84
2022-08-23T05:37:08.688Z,101639.94
2022-08-23T05:39:37.139Z,101647.94
2022-08-23T05:42:05.490Z,101644.63
2022-08-23T05:44:36.453Z,101647.69
2022-08-23T05:47:05.135Z,101656.56
2022-08-23T05:49:38.188Z,101663.19
2022-08-23T05:52:06.351Z,101657.66
2022-08-23T05:54:33.291Z,101659.31
2022-08-23T05:56:59.986Z,101665.16
2022-08-23T05:59:26.506Z,101668.72
2022-08-23T06:01:53.159Z,101667.91
2022-08-23T06:04:20.072Z,101659.88
2022-08-23T06:06:48.331Z,101661.25
2022-08-23T06:09:17.232Z,101667.63
2022-08-23T06:11:45.815Z,101665.41
2022-08-23T06:14:13.062Z,101666.56
2022-08-23T06:16:43.818Z,101665.44
2022-08-23T06:19:10.834Z,101675.69
2022-08-23T06:21:38.628Z,101670.97
2022-08-23T06:24:05.484Z,101672.09
2022-08-23T06:26:34.724Z,101667.94
2022-08-23T06:29:04.835Z,101670.16
2022-08-23T06:31:47.483Z,101678.72
2022-08-23T06:34:20.034Z,101682.00
2022-08-23T06:36:53.691Z,101675.59
2022-08-23T06:39:22.781Z,101671.41
2022-08-23T06:41:50.291Z,101677.75
2022-08-23T06:44:18.576Z,101671.63
2022-08-23T06:46:46.727Z,101679.63
2022-08-23T06:49:13.804Z,101678.50
2022-08-23T06:51:43.646Z,101674.84
2022-08-23T06:54:13.377Z,101675.19
2022-08-23T06:56:41.286Z,101676.75
2022-08-23T06:59:08.827Z,101678.09
2022-08-23T07:01:52.592Z,101677.75
2022-08-23T07:04:32.794Z,101681.88
2022-08-23T07:07:01.592Z,101683.75
2022-08-23T07:09:29.165Z,101684.19
2022-08-23T07:11:56.218Z,101689.19
2022-08-23T07:14:23.627Z,101688.59
2022-08-23T07:16:53.237Z,101689.59
2022-08-23T07:19:22.390Z,101689.31
2022-08-23T07:21:56.637Z,101688.13
2022-08-23T07:24:23.425Z,101687.03
2022-08-23T07:26:52.198Z,101686.53
2022-08-23T07:29:21.056Z,101694.56
2022-08-23T07:31:56.423Z,101690.69
2022-08-23T07:34:24.901Z,101693.97
2022-08-23T07:36:52.928Z,101698.88
2022-08-23T07:39:20.813Z,101696.56
2022-08-23T07:41:47.859Z,101701.72
2022-08-23T07:44:17.997Z,101705.19
2022-08-23T07:46:46.272Z,101702.78
2022-08-23T07:49:13.851Z,101714.59
2022-08-23T07:51:42.460Z,101706.66
2022-08-23T07:54:11.430Z,101709.75
2022-08-23T07:56:38.100Z,101706.09
2022-08-23T07:59:06.145Z,101721.03
2022-08-23T08:01:32.883Z,101724.28
2022-08-23T08:04:02.147Z,101725.56
2022-08-23T08:06:35.178Z,101727.41
2022-08-23T08:09:03.874Z,101723.06
2022-08-23T08:11:35.184Z,101727.13
2022-08-23T08:14:07.572Z,101723.28
2022-08-23T08:16:40.983Z,101718.13
2022-08-23T08:19:11.276Z,101716.72
2022-08-23T08:21:41.936Z,101721.69
2022-08-23T08:24:11.336Z,101724.84
2022-08-23T08:26:38.084Z,101719.09
2022-08-23T08:29:06.252Z,101731.09
2022-08-23T08:31:32.962Z,101731.41
2022-08-23T08:33:59.616Z,101729.97
2022-08-23T08:36:44.491Z,101728.53
2022-08-23T08:39:14.832Z,101736.06
2022-08-23T08:42:04.984Z,101732.19
2022-08-23T08:44:37.562Z,101737.25
2022-08-23T08:47:14.008Z,101735.31
2022-08-23T08:49:48.284Z,101730.41
2022-08-23T08:52:25.978Z,101737.41
2022-08-23T08:55:12.560Z,101743.81
2022-08-23T08:57:42.501Z,101748.34
2022-08-23T09:00:17.588Z,101747.75
2022-08-23T09:02:45.281Z,101746.69
2022-08-23T09:05:18.057Z,101747.75
2022-08-23T09:07:53.164Z,101729.72
2022-08-23T09:10:44.256Z,101736.56
2022-08-23T09:13:23.324Z,101736.06
2022-08-23T09:16:08.660Z,101728.47
2022-08-23T09:18:36.148Z,101726.53
2022-08-23T09:21:06.999Z,101725.69
2022-08-23T09:23:36.570Z,101723.19
2022-08-23T09:26:15.669Z,101718.97
2022-08-23T09:28:46.045Z,101724.75
2022-08-23T09:31:35.855Z,101722.47
2022-08-23T09:34:02.906Z,101714.19
2022-08-23T09:36:34.250Z,101722.53
2022-08-23T09:39:05.601Z,101729.59
2022-08-23T09:41:36.733Z,101721.47
2022-08-23T09:44:06.696Z,101727.09
2022-08-23T09:46:42.090Z,101725.91
2022-08-23T09:49:30.153Z,101722.84
2022-08-23T09:52:00.684Z,101725.47
2022-08-23T09:54:33.095Z,101713.66
2022-08-23T09:57:06.074Z,101715.63
2022-08-23T09:59:43.900Z,101719.91
2022-08-23T10:02:28.333Z,101725.03
2022-08-23T10:05:07.907Z,101717.66
2022-08-23T10:07:43.132Z,101717.59
2022-08-23T10:10:49.092Z,101708.34
2022-08-23T10:13:18.226Z,101709.28
2022-08-23T10:15:59.213Z,101701.53
2022-08-23T10:18:39.695Z,101702.97
2022-08-23T10:21:18.972Z,101707.25
2022-08-23T10:23:57.249Z,101706.78
2022-08-23T10:26:33.002Z,101706.97
2022-08-23T10:29:36.889Z,101707.75
2022-08-23T10:32:10.487Z,101700.72
2022-08-23T10:34:49.898Z,101702.00
2022-08-23T10:37:36.178Z,101709.50
2022-08-23T10:40:04.169Z,101704.22
2022-08-23T10:42:37.386Z,101710.09
2022-08-23T10:45:11.364Z,101694.53
2022-08-23T10:47:46.088Z,101700.38
2022-08-23T10:50:20.049Z,101700.38
2022-08-23T10:53:19.996Z,101706.16
2022-08-23T10:56:03.241Z,101702.88
2022-08-23T10:58:41.240Z,101707.84
2022-08-23T11:01:09.574Z,101708.47
2022-08-23T11:03:44.128Z,101697.81
2022-08-23T11:06:26.711Z,101703.91
2022-08-23T11:09:06.195Z,101708.38
2022-08-23T11:11:43.315Z,101694.06
2022-08-23T11:14:25.397Z,101694.25
2022-08-23T11:16:58.497Z,101698.53
2022-08-23T11:19:49.080Z,101690.44
2022-08-23T11:22:17.716Z,101699.53
2022-08-23T11:24:57.706Z,101696.72
2022-08-23T11:27:34.783Z,101688.63
2022-08-23T11:30:32.519Z,101691.28
2022-08-23T11:33:08.580Z,101689.31
2022-08-23T11:35:53.035Z,101690.66
2022-08-23T11:38:48.215Z,101687.19
2022-08-23T11:41:14.799Z,101695.72
2022-08-23T11:43:44.035Z,101683.06
2022-08-23T11:46:16.734Z,101695.72
2022-08-23T11:48:55.697Z,101695.41
2022-08-23T11:51:37.489Z,101687.97
2022-08-23T11:54:46.272Z,101686.03
2022-08-23T11:57:47.922Z,101679.97
2022-08-23T12:00:29.228Z,101678.94
2022-08-23T12:03:04.487Z,101674.69
2022-08-23T12:05:34.116Z,101684.06
2022-08-23T12:08:04.084Z,101680.94
2022-08-23T12:10:43.396Z,101684.38
2022-08-23T12:13:22.431Z,101683.25
2022-08-23T12:16:16.675Z,101681.59
2022-08-23T12:18:53.396Z,101682.94
2022-08-23T12:21:31.202Z,101675.88
2022-08-23T12:24:22.370Z,101681.47
2022-08-23T12:26:59.166Z,101680.28
2022-08-23T12:29:43.903Z,101681.47
2022-08-23T12:32:39.506Z,101683.59
2022-08-23T12:35:19.052Z,101679.78
2022-08-23T12:38:03.150Z,101680.81
2022-08-23T12:40:34.287Z,101684.44
2022-08-23T12:43:11.799Z,101675.03
2022-08-23T12:45:54.247Z,101677.31
2022-08-23T12:48:25.197Z,101674.38
2022-08-23T12:51:06.566Z,101671.09
2022-08-23T12:53:44.781Z,101670.28
2022-08-23T12:56:26.763Z,101677.03
2022-08-23T12:59:04.855Z,101674.56
2022-08-23T13:01:35.841Z,101669.09
2022-08-23T13:04:12.829Z,101673.19
2022-08-23T13:06:51.437Z,101661.88
2022-08-23T13:09:36.921Z,101666.78
2022-08-23T13:12:06.382Z,101674.53
2022-08-23T13:14:40.418Z,101666.63
2022-08-23T13:17:26.967Z,101670.09
2022-08-23T13:20:02.614Z,101667.47
2022-08-23T13:22:31.189Z,101661.88
2022-08-23T13:25:24.613Z,101658.91
2022-08-23T13:27:46.297Z,101666.78
2022-08-23T13:30:12.743Z,101658.72
2022-08-23T13:32:48.197Z,101669.75
2022-08-23T13:35:31.722Z,101666.78
2022-08-23T13:38:06.643Z,101665.66
2022-08-23T13:40:41.368Z,101654.28
2022-08-23T13:43:12.053Z,101658.06
2022-08-23T13:45:50.443Z,101659.19
2022-08-23T13:48:27.451Z,101658.38
2022-08-23T13:50:54.831Z,101657.34
2022-08-23T13:53:22.470Z,101652.09
2022-08-23T13:55:55.127Z,101647.34
2022-08-23T13:58:33.849Z,101662.00
2022-08-23T14:01:02.496Z,101651.78
2022-08-23T14:03:34.274Z,101658.69
2022-08-23T14:06:00.840Z,101652.44
2022-08-23T14:08:27.356Z,101655.06
2022-08-23T14:10:54.395Z,101649.28
2022-08-23T14:13:24.951Z,101653.91
2022-08-23T14:15:56.712Z,101657.34
2022-08-23T14:18:25.710Z,101659.19
2022-08-23T14:20:52.408Z,101654.91
2022-08-23T14:23:19.269Z,101659.03
2022-08-23T14:25:47.293Z,101649.28
2022-08-23T14:28:13.860Z,101649.97
2022-08-23T14:30:40.592Z,101654.41
2022-08-23T14:33:07.440Z,101662.81
2022-08-23T14:35:34.116Z,101658.84
2022-08-23T14:38:03.323Z,101653.72
2022-08-23T14:40:30.654Z,101655.03
2022-08-23T14:42:57.410Z,101650.41
2022-08-23T14:45:24.115Z,101637.22
2022-08-23T14:47:50.691Z,101646.75
2022-08-23T14:50:17.297Z,101644.63
2022-08-23T14:52:46.428Z,101646.28
2022-08-23T14:55:14.770Z,101650.88
2022-08-23T14:57:41.958Z,101648.41
2022-08-23T15:00:13.917Z,101645.25
2022-08-23T15:02:44.612Z,101644.25
2022-08-23T15:05:13.238Z,101635.69
2022-08-23T15:07:40.073Z,101648.41
2022-08-23T15:10:09.854Z,101640.16
2022-08-23T15:15:23.860Z,101631.56
2022-08-23T15:18:03.755Z,101638.00
2022-08-23T15:20:34.229Z,101644.91
2022-08-23T15:23:01.159Z,101636.91
2022-08-23T15:25:33.787Z,101630.63
2022-08-23T15:28:02.087Z,101634.75
2022-08-23T15:30:30.354Z,101635.34
2022-08-23T15:33:00.608Z,101633.41
2022-08-23T15:35:28.711Z,101633.69
2022-08-23T15:37:56.635Z,101624.13
2022-08-23T15:40:25.301Z,101628.47
2022-08-23T15:42:52.056Z,101633.75
2022-08-23T15:45:18.620Z,101626.84
2022-08-23T15:47:55.662Z,101630.38
2022-08-23T15:50:24.941Z,101623.09
2022-08-23T15:52:52.194Z,101625.06
2022-08-23T15:55:19.780Z,101618.03
2022-08-23T15:57:50.425Z,101620.84
2022-08-23T16:00:18.856Z,101615.22
2022-08-23T16:03:12.623Z,101617.34
2022-08-23T16:05:32.261Z,101614.56
2022-08-23T16:07:59.871Z,101615.91
2022-08-23T16:10:28.319Z,101610.63
2022-08-23T16:12:55.328Z,101607.53
2022-08-23T16:15:22.219Z,101615.59
2022-08-23T16:17:48.807Z,101616.06
2022-08-23T16:20:15.652Z,101611.28
2022-08-23T16:22:42.320Z,101617.72
2022-08-23T16:25:09.144Z,101618.03
2022-08-23T16:27:36.497Z,101622.13
2022-08-23T16:30:05.714Z,101624.13
2022-08-23T16:32:32.295Z,101621.03
2022-08-23T16:34:58.852Z,101618.38
2022-08-23T16:37:25.761Z,101620.34
2022-08-23T16:39:52.406Z,101618.53
2022-08-23T16:42:19.168Z,101613.59
2022-08-23T16:44:45.724Z,101616.53
2022-08-23T16:47:13.119Z,101618.03
2022-08-23T16:49:40.288Z,101622.44
2022-08-23T16:52:07.042Z,101616.38
2022-08-23T16:54:33.567Z,101624.72
2022-08-23T16:57:00.409Z,101625.88
2022-08-23T16:59:26.955Z,101628.81
2022-08-23T17:01:57.160Z,101622.22
2022-08-23T17:04:30.618Z,101635.22
2022-08-23T17:06:58.684Z,101623.16
2022-08-23T17:09:27.700Z,101624.63
2022-08-23T17:11:55.155Z,101628.41
2022-08-23T17:14:24.122Z,101629.22
2022-08-23T17:16:50.955Z,101622.97
2022-08-23T17:19:17.555Z,101629.63
2022-08-23T17:21:44.909Z,101626.28
2022-08-23T17:24:11.420Z,101629.72
2022-08-23T17:26:38.051Z,101630.94
2022-08-23T17:29:04.966Z,101633.47
2022-08-23T17:31:31.729Z,101630.28
2022-08-23T17:34:03.214Z,101631.47
2022-08-23T17:36:41.112Z,101631.91
2022-08-23T17:39:10.718Z,101631.88
2022-08-23T17:41:40.046Z,101640.25
2022-08-23T17:44:09.063Z,101643.59
2022-08-23T17:46:40.850Z,101639.38
2022-08-23T17:49:07.923Z,101632.94
2022-08-23T17:51:36.776Z,101641.84
2022-08-23T17:54:04.347Z,101641.66
2022-08-23T17:56:31.015Z,101640.59
2022-08-23T17:58:57.585Z,101649.22
2022-08-23T18:01:24.383Z,101653.91
2022-08-23T18:03:51.440Z,101646.69
2022-08-23T18:06:18.574Z,101646.00
2022-08-23T18:08:46.256Z,101654.63
2022-08-23T18:11:14.195Z,101653.75
2022-08-23T18:13:42.508Z,101659.16
2022-08-23T18:16:09.197Z,101652.41
2022-08-23T18:18:36.092Z,101657.06
2022-08-23T18:21:07.742Z,101652.22
2022-08-23T18:23:35.083Z,101661.81
2022-08-23T18:26:29.754Z,101658.59
2022-08-23T18:28:57.351Z,101662.63
2022-08-23T18:31:24.722Z,101665.59
2022-08-23T18:33:51.340Z,101669.22
2022-08-23T18:36:17.955Z,101666.75
2022-08-23T18:38:46.147Z,101668.66
2022-08-23T18:41:16.763Z,101663.78
2022-08-23T18:43:44.316Z,101671.31
2022-08-23T18:46:16.668Z,101663.53
2022-08-23T18:48:43.346Z,101677.53
2022-08-23T18:51:19.932Z,101677.88
2022-08-23T18:53:47.001Z,101679.19
2022-08-23T18:56:13.586Z,101689.56
2022-08-23T18:58:40.110Z,101686.78
2022-08-23T19:01:27.911Z,101694.34
2022-08-23T19:03:56.537Z,101691.16
2022-08-23T19:06:23.926Z,101707.00
2022-08-23T19:08:51.737Z,101704.53
2022-08-23T19:11:20.055Z,101712.81
2022-08-23T19:13:47.962Z,101717.19
2022-08-23T19:16:16.126Z,101710.56
2022-08-23T19:18:46.167Z,101711.53
2022-08-23T19:21:18.868Z,101722.50
2022-08-23T19:23:46.823Z,101719.56
2022-08-23T19:26:16.405Z,101722.78
2022-08-23T19:28:43.743Z,101724.19
2022-08-23T19:31:12.157Z,101722.97
2022-08-23T19:33:41.839Z,101728.34
2022-08-23T19:36:23.642Z,101731.13
2022-08-23T19:38:57.399Z,101736.75
2022-08-23T19:41:24.837Z,101746.41
2022-08-23T19:43:52.495Z,101739.75
2022-08-23T19:46:20.368Z,101752.44
2022-08-23T19:48:50.373Z,101747.88
2022-08-23T19:51:21.131Z,101747.34
2022-08-23T19:54:11.049Z,101755.63
2022-08-23T19:56:59.823Z,101750.56
2022-08-23T19:59:31.712Z,101757.25
2022-08-23T20:02:00.015Z,101753.06
2022-08-23T20:04:29.994Z,101758.00
2022-08-23T20:06:58.017Z,101754.91
2022-08-23T20:09:26.387Z,101763.56
2022-08-23T20:11:52.943Z,101752.81
2022-08-23T20:14:21.894Z,101758.16
2022-08-23T20:16:48.964Z,101762.56
2022-08-23T20:19:16.101Z,101763.97
2022-08-23T20:21:43.195Z,101764.78
2022-08-23T20:24:12.640Z,101764.28
2022-08-23T20:26:42.366Z,101762.59
2022-08-23T20:29:14.371Z,101772.31
2022-08-23T20:31:49.522Z,101769.88
2022-08-23T20:34:16.516Z,101773.16
2022-08-23T20:36:43.660Z,101770.97
2022-08-23T20:39:10.415Z,101774.56
2022-08-23T20:41:38.840Z,101771.00
2022-08-23T20:44:06.936Z,101773.84
2022-08-23T20:46:33.719Z,101765.44
2022-08-23T20:49:00.761Z,101766.91
2022-08-23T20:51:28.597Z,101772.19
2022-08-23T20:53:56.212Z,101777.75
2022-08-23T20:56:23.559Z,101776.03
2022-08-23T20:58:50.887Z,101773.28
2022-08-23T21:01:18.587Z,101779.91
2022-08-23T21:03:45.592Z,101768.88
2022-08-23T21:06:20.131Z,101779.63
2022-08-23T21:08:53.413Z,101775.22
2022-08-23T21:11:22.084Z,101775.00
2022-08-23T21:13:49.518Z,101774.69
2022-08-23T21:16:17.310Z,101773.84
2022-08-23T21:18:44.324Z,101772.78
2022-08-23T21:21:11.367Z,101766.97
2022-08-23T21:23:38.765Z,101778.84
2022-08-23T21:26:06.493Z,101775.03
2022-08-23T21:28:33.306Z,101773.63
2022-08-23T21:31:15.841Z,101785.00
2022-08-23T21:33:43.130Z,101776.66
2022-08-23T21:36:10.291Z,101772.78
2022-08-23T21:38:37.370Z,101786.09
2022-08-23T21:41:07.827Z,101780.81
2022-08-23T21:43:39.171Z,101780.25
2022-08-23T21:46:07.300Z,101782.78
2022-08-23T21:48:34.402Z,101776.97
2022-08-23T21:51:01.267Z,101772.81
2022-08-23T21:53:27.954Z,101783.91
2022-08-23T21:55:54.494Z,101775.03
2022-08-23T21:58:21.029Z,101777.25
2022-08-23T22:00:48.010Z,101775.59
2022-08-23T22:03:14.723Z,101776.97
2022-08-23T22:05:43.732Z,101780.03
2022-08-23T22:08:14.428Z,101776.66
2022-08-23T22:10:48.146Z,101779.47
2022-08-23T22:13:24.883Z,101776.13
2022-08-23T22:15:51.503Z,101775.59
2022-08-23T22:18:18.161Z,101775.00
2022-08-23T22:20:44.688Z,101784.44
2022-08-23T22:23:11.438Z,101781.66
2022-08-23T22:25:38.085Z,101785.56
2022-08-23T22:28:04.673Z,101776.13
2022-08-23T22:30:31.228Z,101786.66
2022-08-23T22:32:57.790Z,101789.13
2022-08-23T22:35:24.375Z,101782.81
2022-08-23T22:38:12.343Z,101780.56
2022-08-23T22:40:37.499Z,101786.09
2022-08-23T22:43:04.068Z,101781.66
2022-08-23T22:45:30.620Z,101786.97
2022-08-23T22:47:57.248Z,101778.38
2022-08-23T22:50:23.840Z,101785.28
2022-08-23T22:52:50.901Z,101787.78
2022-08-23T22:55:17.737Z,101788.06
2022-08-23T22:57:44.311Z,101781.66
2022-08-23T23:00:11.530Z,101786.66
2022-08-23T23:02:38.948Z,101783.06
2022-08-23T23:05:07.944Z,101784.97
2022-08-23T23:07:52.886Z,101786.94
2022-08-23T23:10:19.544Z,101779.44
2022-08-23T23:12:46.464Z,101783.88
2022-08-23T23:15:13.166Z,101790.25
2022-08-23T23:17:39.908Z,101783.31
2022-08-23T23:20:25.560Z,101791.94
2022-08-23T23:22:52.162Z,101789.97
2022-08-23T23:25:18.974Z,101791.13
2022-08-23T23:27:45.587Z,101794.97
2022-08-23T23:30:12.948Z,101797.16
2022-08-23T23:32:39.675Z,101797.75
2022-08-23T23:35:09.446Z,101809.09
2022-08-23T23:37:36.118Z,101798.25
2022-08-23T23:40:03.686Z,101796.63
2022-08-23T23:42:30.245Z,101797.16
2022-08-23T23:44:56.768Z,101791.91
2022-08-23T23:47:23.406Z,101792.19
2022-08-23T23:49:50.596Z,101788.84
2022-08-23T23:52:17.285Z,101788.84
2022-08-23T23:54:43.902Z,101793.03
2022-08-23T23:57:10.431Z,101791.13
2022-08-23T23:59:37.060Z,101790.53
